Reportages photos

Inscriptions en ligne

Connexion

Veterans

VETERANS FETE DE LA FRAISE SAMER du 16/06/15 (Réelle 7)
Rang Dossard Nom Prénom Temps Cat Rang Cat Ecart Ecart Cat Club Vitesse Km/h Temps au Km
1 111 THESSE YANN 00:22:14 V1M 1 00:00:00 00:00:00 AC AUDOMAROIS 18,891 03:11
2 155 SUEUR FABRICE 00:22:51 V1M 2 00:00:37 00:00:37 SPORT EVASION DES 2 CAPS 18,381 03:16
3 314 PRUD'HOMME GEORGES 00:23:24 V1M 3 00:01:10 00:01:10 COURIR DANS LE LUMBROIS 17,949 03:21
4 301 LANNOY FREDERIC 00:23:40 V1M 4 00:01:26 00:01:26 ATHLETISME CLUB OUTREAU 17,746 03:23
5 157 VASSEUR DIMITRI 00:24:10 V1M 5 00:01:56 00:01:56 CALOTTERIE 17,379 03:27
6 136 GRESSIER OLIVIER 00:24:10 V1M 6 00:01:56 00:01:56 RUN IN LOVE 17,379 03:27
7 147 HODIQUE HERVE 00:24:38 V1M 7 00:02:24 00:02:24 TEAM TRAIL 62 17,050 03:31
8 29 DUCROCQ ARNAUD 00:24:42 V1M 8 00:02:28 00:02:28 PATRIOTES CROSS DE GUINES 17,004 03:32
9 137 LOEUILLIEUX STEPHANE 00:24:52 V1M 9 00:02:38 00:02:38 TEAM TRAIL 62 16,890 03:33
10 36 DACQUIN FABIEN 00:25:17 V1M 10 00:03:03 00:03:03 TEAM TRAIL 62 16,612 03:37
11 138 HALLENNE VALERY 00:25:29 V1M 11 00:03:15 00:03:15 TOUQUET OPALE ATHLETISME 16,481 03:38
12 150 LEMAITRE LAURENT 00:25:38 V1M 12 00:03:24 00:03:24 NON LICENCIE 16,385 03:40
13 149 FORESTIER ALAIN 00:25:39 V1M 13 00:03:25 00:03:25 AMICALE HOSPITALIERS BOULOGNE 16,374 03:40
14 130 BRIEZ ARNAUD 00:25:42 V1M 14 00:03:28 00:03:28 ATHLETIQUE CLUB CAPELLOIS 16,342 03:40
15 154 NOEL DAVID 00:25:43 V1M 15 00:03:29 00:03:29 ATHLETIQUE CLUB CAPELLOIS 16,332 03:40
16 143 CALOIN WILLIAM 00:25:44 V1M 16 00:03:30 00:03:30 ATHLETISME CLUB OUTREAU 16,321 03:41
17 128 CALON CHRISTIAN 00:25:58 V2M 1 00:03:44 00:00:00 ATHLETISME CLUB OUTREAU 16,175 03:43
18 47 DUCROCQ YVES 00:26:11 V2M 2 00:03:57 00:00:13 NON LICENCIE 16,041 03:44
19 127 ANDRIEUX JOEL 00:26:18 V1M 17 00:04:04 00:04:04 NON LICENCIE 15,970 03:45
20 117 GRESSIER OLIVIER 00:26:18 V1M 18 00:04:04 00:04:04 FREVENT OLYMPIC CLUB 15,970 03:45
21 122 DAMIENS PHILIPPE 00:26:25 V1M 19 00:04:11 00:04:11 LE DRAPEAU 15,899 03:46
22 302 MORICE ARNAUD 00:26:28 V1M 20 00:04:14 00:04:14 ATHLETISME CLUB OUTREAU 15,869 03:47
23 118 DUSSAUSSOY ALAIN 00:26:39 V1M 21 00:04:25 00:04:25 COLEMBERT 15,760 03:48
24 145 FARNWORTH GRAEME 00:26:42 V1M 22 00:04:28 00:04:28 ATHLETIQUE CLUB CAPELLOIS 15,730 03:49
25 146 GRESSIER YANNICK 00:27:01 V1M 23 00:04:47 00:04:47 TEAM TRAIL 62 15,546 03:52
26 104 DEWET WILFRIED 00:27:05 V1M 24 00:04:51 00:04:51 15,508 03:52
27 109 VASSEUR THIERRY 00:27:10 V1M 25 00:04:56 00:04:56 NON LICENCIE 15,460 03:53
28 160 DAGNEAUX FABIEN 00:27:10 V1M 26 00:04:56 00:04:56 NON LICENCIE 15,460 03:53
29 139 SELLIER CHRISTOPHE 00:27:12 V1M 27 00:04:58 00:04:58 OPALE TRAIL NATURE 15,441 03:53
30 135 BORDEZ FRANCK 00:27:14 V2M 3 00:05:00 00:01:16 SPORT PLUS 15,422 03:53
31 140 CHOUROT LUCIEN 00:27:32 V2M 4 00:05:18 00:01:34 LE DRAPEAU 15,254 03:56
32 108 DOUCHAIN SEBASTIEN 00:27:34 V1M 28 00:05:20 00:05:20 LE DRAPEAU 15,236 03:56
33 120 APHERVE REGIS 00:27:35 V1M 29 00:05:21 00:05:21 LE DRAPEAU 15,227 03:56
34 141 GINOLIN FRANKIE 00:28:10 V1M 30 00:05:56 00:05:56 LE DRAPEAU 14,911 04:01
35 126 CHAUCHOY OLIVIER 00:28:17 V1M 31 00:06:03 00:06:03 COLEMBERT 14,850 04:02
36 116 LABOURDETTE SEBASTIEN 00:28:25 V1M 32 00:06:11 00:06:11 NON LICENCIE 14,780 04:04
37 121 BALY PATRICK 00:28:39 V2M 5 00:06:25 00:02:41 TEAM BALY 14,660 04:06
38 124 CAULIER RUDOLPH 00:29:01 V1M 33 00:06:47 00:06:47 COLEMBERT 14,474 04:09
39 115 DETHOOR DOMINIQUE 00:29:04 V2M 6 00:06:50 00:03:06 COLEMBERT 14,450 04:09
40 4 BODART LUDOVIC 00:29:06 V1M 34 00:06:52 00:06:52 WIMEREUX RUNNING CLUB 14,433 04:09
41 156 BUTEL DANIEL 00:29:22 V2M 7 00:07:08 00:03:24 SPORT PLUS 14,302 04:12
42 49 LEROY DAVID 00:29:30 V1M 35 00:07:16 00:07:16 A.S. MARCK 14,237 04:13
43 340 RAVEL MARC 00:29:49 V2M 8 00:07:35 00:03:51 COLEMBERT 14,086 04:16
44 332 LOEUILLIEUX BERTRAND 00:29:58 V2M 9 00:07:44 00:04:00 COLEMBERT 14,016 04:17
45 339 PETIT HUBERT 00:30:00 V1M 36 00:07:46 00:07:46 SPORT EVASION DES 2 CAPS 14,000 04:17
46 8 DOCQUOIS MICHEL 00:30:05 V1M 37 00:07:51 00:07:51 LE DRAPEAU 13,961 04:18
47 102 CARLU DOMINIQUE 00:30:06 V2M 10 00:07:52 00:04:08 NON LICENCIE 13,953 04:18
48 45 METTIER JEAN-FRANCOIS 00:30:09 V1M 38 00:07:55 00:07:55 SPORT PLUS 13,930 04:18
49 158 DUCROQUET MICHEL 00:30:23 V3M 1 00:08:09 00:00:00 COLEMBERT 13,823 04:20
50 106 POSTA JEAN-FRANCOIS 00:30:27 V2M 11 00:08:13 00:04:29 LE DRAPEAU 13,793 04:21
51 326 HENNUYER THIERRY 00:30:33 V2M 12 00:08:19 00:04:35 NON LICENCIE 13,748 04:22
52 114 AVISSE SEBASTIEN 00:30:33 V1M 39 00:08:19 00:08:19 COLEMBERT 13,748 04:22
53 110 MARTEL ERIC 00:30:38 V2M 13 00:08:24 00:04:40 TEAM TRAIL 62 13,711 04:23
54 142 FAIT JEAN-PHILIPPE 00:30:38 V1M 40 00:08:24 00:08:24 NL 13,711 04:23
55 132 ROUSSEL STEPHANE 00:30:39 V2M 14 00:08:25 00:04:41 COLEMBERT 13,703 04:23
56 153 MACQUET BRUNO 00:30:49 V2M 15 00:08:35 00:04:51 OPALE TRAIL NATURE 13,629 04:24
57 152 DUPONT PATRICK 00:30:50 V2M 16 00:08:36 00:04:52 LE DRAPEAU 13,622 04:24
58 148 MOUILLIERE JEAN-NOEL 00:31:24 V1M 41 00:09:10 00:09:10 NON LICENCIE 13,376 04:29
59 105 DECOTTE GERARD 00:31:26 V2M 17 00:09:12 00:05:28 SPORT PLUS 13,362 04:29
60 48 WEDIER HENRI 00:31:38 V1M 42 00:09:24 00:09:24 ATHLETISME CLUB OUTREAU 13,277 04:31
61 119 LEPERCQ FLORENT 00:31:45 V2M 18 00:09:31 00:05:47 LE DRAPEAU 13,228 04:32
62 304 VANACKERE FREDERIC 00:31:57 V2M 19 00:09:43 00:05:59 ATHLETISME CLUB OUTREAU 13,146 04:34
63 133 DAUCHEZ BRUNO 00:32:14 V2M 20 00:10:00 00:06:16 CALOTTERIE 13,030 04:36
64 46 LAVOINE FABIEN 00:32:36 V1M 43 00:10:22 00:10:22 MARCK ATHLON 12,883 04:39
65 305 KACZMAREK JOSE 00:32:39 V2M 21 00:10:25 00:06:41 NON LICENCIE 12,864 04:40
66 151 MALFOY JEAN-PIERRE 00:33:10 V3M 2 00:10:56 00:02:47 SAINT MARTIN ATHLETISME 12,663 04:44
67 331 RIDEZ JEAN-MARIE 00:33:31 V1M 44 00:11:17 00:11:17 NON LICENCIE 12,531 04:47
68 129 WADOUX HERVE 00:33:51 V1M 45 00:11:37 00:11:37 NON LICENCIE 12,408 04:50
69 335 RENARD BENOIT 00:34:25 V1M 46 00:12:11 00:12:11 NON LICENCIE 12,203 04:55
70 327 XXX XXX 00:34:41 V1M 47 00:12:27 00:12:27 NON LICENCIE 12,110 04:57
71 107 BARADEL MARC 00:34:41 V3M 3 00:12:27 00:04:18 LE DRAPEAU 12,110 04:57
72 112 HARLE MICHEL 00:34:50 V2M 22 00:12:36 00:08:52 SAINT MARTIN ATHLETISME 12,057 04:59
73 317 PALFROIX DANIEL 00:35:44 V2M 23 00:13:30 00:09:46 LE DRAPEAU 11,754 05:06
74 144 GORGERET DAVID 00:36:14 V1M 48 00:14:00 00:14:00 ATHLETISME CLUB OUTREAU 11,592 05:11
75 113 MALFOY MICHEL 00:36:18 V3M 4 00:14:04 00:05:55 SAINT MARTIN ATHLETISME 11,570 05:11
76 303 POINTFER JACQUES 00:37:00 V3M 5 00:14:46 00:06:37 SPORT PLUS 11,351 05:17
77 333 VERITE HERVE 00:37:40 V2M 24 00:15:26 00:11:42 SPORT PLUS 11,150 05:23
78 123 BAILLEUX REGIS 00:38:22 V3M 6 00:16:08 00:07:59 NON LICENCIE 10,947 05:29
79 131 EVANGELAINE PATRICE 00:41:52 V1M 49 00:19:38 00:19:38 NON LICENCIE 10,032 05:59
80 134 MERLIN JOSE 00:42:34 V2M 25 00:20:20 00:16:36 NON LICENCIE 9,867 06:05
81 159 LEBAS ERIC 00:21:04 V1M 50 AMICALE HOSPITALIERS BOULOGNE 19,937 03:01

 

Novembre 2017
Lun Mar Mer Jeu Ven Sam Dim
1
2
3
4
5
6
7
8
9
10
11
12
13
14
15
16
17
18
19
20
21
22
23
24
25
27
28
29
30